ROKJ(METAR)
07/27 18:00
ROKJ 270900Z 12015KT 9999 SCT010 BKNXXX 29/26 Q0996 RMK A2942=
戻る
トップページへ戻る
IMOC Co,.Ltd.